createdAt,value
2018-01-25T00:00:40.665Z,1002.28
2018-01-25T00:01:25.628Z,1002.21
2018-01-25T00:02:07.065Z,1002.23
2018-01-25T00:02:47.816Z,1002.37
2018-01-25T00:03:28.414Z,1002.28
2018-01-25T00:04:12.344Z,1002.41
2018-01-25T00:04:53.548Z,1002.32
2018-01-25T00:05:36.538Z,1002.37
2018-01-25T00:06:23.142Z,1002.36
2018-01-25T00:07:04.914Z,1002.36
2018-01-25T00:10:12.764Z,1002.22
2018-01-25T00:10:52.096Z,1002.26
2018-01-25T00:11:32.608Z,1002.23
2018-01-25T00:12:13.004Z,1002.23
2018-01-25T00:12:53.420Z,1002.26
2018-01-25T00:13:33.890Z,1002.26
2018-01-25T00:14:14.765Z,1002.21
2018-01-25T00:14:55.171Z,1002.21
2018-01-25T00:15:35.813Z,1002.15
2018-01-25T00:16:16.501Z,1002.17
2018-01-25T00:16:57.655Z,1002.13
2018-01-25T00:17:39.154Z,1002.22
2018-01-25T00:18:20.796Z,1002.12
2018-01-25T00:19:00.877Z,1002.21
2018-01-25T00:19:41.362Z,1002.16
2018-01-25T00:20:21.669Z,1002.12
2018-01-25T00:21:02.833Z,1002.18
2018-01-25T00:21:44.114Z,1002.14
2018-01-25T00:22:25.752Z,1002.16
2018-01-25T00:23:06.025Z,1002.24
2018-01-25T00:23:46.542Z,1002.21
2018-01-25T00:24:26.928Z,1002.17
2018-01-25T00:25:07.590Z,1002.16
2018-01-25T00:25:48.764Z,1002.18
2018-01-25T00:26:29.510Z,1002.14
2018-01-25T00:27:11.471Z,1002.2
2018-01-25T00:27:51.903Z,1002.26
2018-01-25T00:28:32.482Z,1002.22
2018-01-25T00:29:12.832Z,1002.2
2018-01-25T00:29:53.271Z,1002.19
2018-01-25T00:30:34.959Z,1002.25
2018-01-25T00:31:15.415Z,1002.24
2018-01-25T00:31:57.046Z,1002.26
2018-01-25T00:32:38.189Z,1002.32
2018-01-25T00:33:19.422Z,1002.16
2018-01-25T00:34:00.689Z,1002.18
2018-01-25T00:34:40.712Z,1002.31
2018-01-25T00:35:21.178Z,1002.84
2018-01-25T00:36:01.725Z,1002.23
2018-01-25T00:36:42.312Z,1002.24
2018-01-25T00:37:22.665Z,1002.24
2018-01-25T00:38:03.633Z,1002.13
2018-01-25T00:38:44.919Z,1002.17
2018-01-25T00:39:25.435Z,1002.25
2018-01-25T00:40:06.431Z,1002.33
2018-01-25T00:40:46.606Z,1002.29
2018-01-25T00:41:27.803Z,1002.32
2018-01-25T00:42:08.193Z,1002.3
2018-01-25T00:42:50.088Z,1002.31
2018-01-25T00:43:31.456Z,1002.28
2018-01-25T00:44:14.439Z,1002.31
2018-01-25T00:44:54.863Z,1002.32
2018-01-25T00:45:35.881Z,1002.34
2018-01-25T00:46:16.410Z,1002.32
2018-01-25T00:46:58.763Z,1002.32
2018-01-25T00:47:39.045Z,1002.31
2018-01-25T00:48:19.734Z,1002.23
2018-01-25T00:48:59.959Z,1002.26
2018-01-25T00:49:40.967Z,1002.26
2018-01-25T00:50:21.612Z,1002.27
2018-01-25T00:51:02.131Z,1002.23
2018-01-25T00:51:44.659Z,1002.31
2018-01-25T00:52:25.335Z,1002.33
2018-01-25T00:53:06.052Z,1002.29
2018-01-25T00:53:46.155Z,1002.36
2018-01-25T00:54:26.959Z,1002.34
2018-01-25T00:55:07.399Z,1002.34
2018-01-25T00:55:49.674Z,1002.33
2018-01-25T00:56:30.268Z,1002.35
2018-01-25T00:57:10.713Z,1002.34
2018-01-25T00:57:51.287Z,1002.3
2018-01-25T00:58:31.932Z,1002.34
2018-01-25T00:59:12.422Z,1002.28
2018-01-25T00:59:53.572Z,1002.32
2018-01-25T01:00:33.871Z,1002.29
2018-01-25T01:01:14.386Z,1002.36
2018-01-25T01:01:54.729Z,1002.32
2018-01-25T01:02:35.157Z,1002.29
2018-01-25T01:03:15.613Z,1002.32
2018-01-25T01:03:56.006Z,1002.3
2018-01-25T01:04:36.420Z,1002.35
2018-01-25T01:05:17.869Z,1002.29
2018-01-25T01:05:59.224Z,1002.33
2018-01-25T01:06:39.739Z,1002.32
2018-01-25T01:07:20.100Z,1002.3
2018-01-25T01:30:53.584Z,1002.34
2018-01-25T01:34:52.772Z,1002.72
2018-01-25T01:35:33.225Z,1002.82
2018-01-25T01:36:14.644Z,1002.84
2018-01-25T01:36:55.269Z,1002.95
2018-01-25T01:37:35.809Z,1002.87
2018-01-25T01:38:16.863Z,1002.78
2018-01-25T01:38:57.584Z,1002.71
2018-01-25T01:39:38.661Z,1002.76
2018-01-25T01:40:20.588Z,1002.77
2018-01-25T01:53:10.237Z,1002.95
2018-01-25T01:53:50.937Z,1002.9
2018-01-25T01:54:31.863Z,1002.96
2018-01-25T01:55:18.965Z,1003.01
2018-01-25T01:55:59.857Z,1003.09
2018-01-25T01:56:46.137Z,1003.05
2018-01-25T01:57:27.127Z,1003.03
2018-01-25T01:58:09.763Z,1003.06
2018-01-25T01:58:51.230Z,1003.05
2018-01-25T01:59:33.117Z,1003.09
2018-01-25T02:00:13.533Z,1003.12
2018-01-25T02:00:58.212Z,1003.09
2018-01-25T02:01:38.782Z,1003.09
2018-01-25T02:02:19.652Z,1003.02
2018-01-25T02:03:01.450Z,1002.96
2018-01-25T02:03:42.922Z,1002.98
2018-01-25T02:04:23.237Z,1003.03
2018-01-25T02:05:03.923Z,1003.06
2018-01-25T02:05:46.534Z,1003.07
2018-01-25T02:08:14.304Z,1003.06
2018-01-25T02:10:41.541Z,1003.09
2018-01-25T02:17:49.865Z,1003.18
2018-01-25T02:18:31.484Z,1003.21
2018-01-25T02:19:17.864Z,1003.2
2018-01-25T02:19:58.923Z,1003.24
2018-01-25T02:20:39.824Z,1003.2
2018-01-25T02:21:26.241Z,1003.26
2018-01-25T02:22:08.084Z,1003.27
2018-01-25T02:22:49.322Z,1003.27
2018-01-25T02:28:52.576Z,1003.35
2018-01-25T02:36:36.775Z,1003.02
2018-01-25T02:37:32.396Z,1003.18
2018-01-25T02:38:13.019Z,1003.25
2018-01-25T02:38:53.419Z,1003.28
2018-01-25T02:39:33.877Z,1003.34
2018-01-25T02:40:14.224Z,1003.35
2018-01-25T02:40:54.625Z,1003.41
2018-01-25T02:41:35.038Z,1003.4
2018-01-25T02:42:15.387Z,1003.36
2018-01-25T02:42:55.809Z,1003.36
2018-01-25T02:43:36.214Z,1003.36
2018-01-25T02:44:16.584Z,1003.36
2018-01-25T02:44:57.039Z,1003.43
2018-01-25T02:45:37.448Z,1003.41
2018-01-25T02:46:18.002Z,1003.43
2018-01-25T02:46:58.579Z,1003.4
2018-01-25T02:47:38.693Z,1003.42
2018-01-25T02:48:19.259Z,1003.44
2018-01-25T02:48:59.726Z,1003.47
2018-01-25T02:49:40.036Z,1003.52
2018-01-25T02:50:20.439Z,1003.54
2018-01-25T02:51:00.826Z,1003.55
2018-01-25T02:51:41.255Z,1003.58
2018-01-25T02:52:21.610Z,1003.51
2018-01-25T02:53:02.088Z,1003.48
2018-01-25T02:53:42.481Z,1003.46
2018-01-25T02:54:22.946Z,1003.39
2018-01-25T02:55:06.306Z,1003.37
2018-01-25T02:55:46.531Z,1003.32
2018-01-25T02:56:27.092Z,1003.32
2018-01-25T02:57:07.420Z,1003.35
2018-01-25T02:57:47.893Z,1003.34
2018-01-25T02:58:28.261Z,1003.38
2018-01-25T02:59:08.709Z,1003.34
2018-01-25T02:59:49.476Z,1003.37
2018-01-25T03:00:29.937Z,1003.36
2018-01-25T03:01:10.299Z,1003.36
2018-01-25T03:01:50.694Z,1003.41
2018-01-25T03:02:31.207Z,1003.4
2018-01-25T03:03:11.816Z,1003.36
2018-01-25T03:03:52.098Z,1003.44
2018-01-25T03:04:32.592Z,1003.38
2018-01-25T03:05:13.012Z,1003.38
2018-01-25T03:05:53.447Z,1003.39
2018-01-25T03:06:34.029Z,1003.41
2018-01-25T03:07:14.790Z,1003.39
2018-01-25T03:07:55.307Z,1003.38
2018-01-25T03:08:35.704Z,1003.41
2018-01-25T03:09:18.243Z,1003.45
2018-01-25T03:09:59.211Z,1003.4
2018-01-25T03:10:39.642Z,1003.4
2018-01-25T03:11:20.025Z,1003.43
2018-01-25T03:12:00.474Z,1003.42
2018-01-25T03:12:41.536Z,1003.41
2018-01-25T03:13:21.946Z,1003.42
2018-01-25T03:14:02.751Z,1003.46
2018-01-25T03:14:43.093Z,1003.44
2018-01-25T03:15:23.993Z,1003.42
2018-01-25T03:16:04.340Z,1003.42
2018-01-25T03:16:44.737Z,1003.42
2018-01-25T03:17:25.128Z,1003.44
2018-01-25T03:18:06.240Z,1003.42
2018-01-25T03:18:46.975Z,1003.5
2018-01-25T03:22:26.891Z,1003.48
2018-01-25T03:23:11.515Z,1003.55
2018-01-25T03:23:51.967Z,1003.52
2018-01-25T03:24:37.653Z,1003.54
2018-01-25T03:25:18.394Z,1003.61
2018-01-25T03:26:01.954Z,1003.59
2018-01-25T03:26:42.418Z,1003.6
2018-01-25T03:27:26.312Z,1003.59
2018-01-25T03:28:53.774Z,1003.62
2018-01-25T03:29:34.281Z,1003.6
2018-01-25T03:30:14.547Z,1003.59
2018-01-25T03:30:55.019Z,1003.6
2018-01-25T03:31:35.337Z,1003.58
2018-01-25T03:32:15.735Z,1003.56
2018-01-25T03:32:56.524Z,1003.51
2018-01-25T03:33:41.776Z,1003.48
2018-01-25T03:34:24.584Z,1003.52
2018-01-25T03:35:10.055Z,1003.53
2018-01-25T03:35:50.434Z,1003.59
2018-01-25T03:36:30.907Z,1003.57
2018-01-25T03:37:11.485Z,1003.6
2018-01-25T03:37:51.740Z,1003.61
2018-01-25T03:38:34.102Z,1003.63
2018-01-25T03:39:15.322Z,1003.58
2018-01-25T03:39:55.638Z,1003.61
2018-01-25T03:40:36.092Z,1003.62
2018-01-25T03:43:16.138Z,1003.6
2018-01-25T03:44:09.722Z,1003.55
2018-01-25T03:46:07.635Z,1003.49
2018-01-25T03:48:05.389Z,1003.4
2018-01-25T03:53:41.149Z,1003.35
2018-01-25T03:59:04.803Z,1003.53
2018-01-25T04:03:13.868Z,1003.67
2018-01-25T04:04:02.360Z,1003.68
2018-01-25T04:47:00.429Z,1003.96
2018-01-25T04:54:05.341Z,1003.75
2018-01-25T04:54:56.210Z,1003.71
2018-01-25T04:58:14.805Z,1003.69
2018-01-25T04:59:07.243Z,1003.71
2018-01-25T05:01:33.137Z,1003.6
2018-01-25T05:03:30.599Z,1003.53
2018-01-25T05:04:22.388Z,1003.46
2018-01-25T05:05:14.024Z,1003.45
2018-01-25T05:06:08.159Z,1003.47
2018-01-25T05:11:49.449Z,1003.43
2018-01-25T05:12:39.906Z,1003.45
2018-01-25T05:14:57.386Z,1003.43
2018-01-25T05:16:54.469Z,1003.44
2018-01-25T05:17:44.451Z,1003.45
2018-01-25T05:20:14.420Z,1003.43
2018-01-25T05:25:36.671Z,1003.34
2018-01-25T05:26:30.653Z,1003.38
2018-01-25T05:27:28.811Z,1003.4
2018-01-25T05:28:24.862Z,1003.4
2018-01-25T05:34:34.089Z,1003.53
2018-01-25T05:37:05.571Z,1003.41
2018-01-25T05:43:25.819Z,1003.49
2018-01-25T05:47:02.027Z,1003.36
2018-01-25T05:52:10.047Z,1003.46
2018-01-25T05:56:01.127Z,1003.67
2018-01-25T05:59:49.006Z,1003.76
2018-01-25T06:01:46.604Z,1003.7
2018-01-25T06:02:36.801Z,1003.72
2018-01-25T06:05:36.953Z,1003.74
2018-01-25T06:11:01.980Z,1003.67
2018-01-25T06:13:25.176Z,1003.57
2018-01-25T06:14:21.782Z,1003.67
2018-01-25T06:20:35.699Z,1003.71
2018-01-25T06:22:42.299Z,1003.75
2018-01-25T06:29:46.662Z,1003.63
2018-01-25T06:30:38.866Z,1003.57
2018-01-25T06:31:32.659Z,1003.56
2018-01-25T06:33:59.982Z,1003.59
2018-01-25T06:34:57.414Z,1003.64
2018-01-25T06:35:51.601Z,1003.68
2018-01-25T06:36:48.790Z,1003.72
2018-01-25T06:37:43.467Z,1003.72
2018-01-25T06:38:39.846Z,1003.76
2018-01-25T06:39:37.729Z,1003.77
2018-01-25T06:40:30.912Z,1003.8
2018-01-25T06:41:27.297Z,1003.77
2018-01-25T06:42:21.494Z,1003.75
2018-01-25T06:43:19.019Z,1003.72
2018-01-25T06:44:14.680Z,1003.71
2018-01-25T06:45:12.020Z,1003.71
2018-01-25T06:46:09.000Z,1003.76
2018-01-25T06:47:03.153Z,1003.79
2018-01-25T06:48:02.549Z,1003.78
2018-01-25T06:49:00.724Z,1003.81
2018-01-25T06:52:07.620Z,1003.8
2018-01-25T06:52:46.732Z,1003.81
2018-01-25T06:53:28.175Z,1003.78
2018-01-25T06:54:08.668Z,1003.78
2018-01-25T06:54:49.237Z,1003.75
2018-01-25T06:55:30.069Z,1003.78
2018-01-25T06:56:10.978Z,1003.84
2018-01-25T06:56:51.628Z,1003.83
2018-01-25T06:57:32.250Z,1003.88
2018-01-25T06:58:12.925Z,1003.82
2018-01-25T06:58:53.743Z,1003.86
2018-01-25T06:59:34.019Z,1003.88
2018-01-25T07:00:14.941Z,1003.83
2018-01-25T07:00:56.693Z,1003.84
2018-01-25T07:01:37.936Z,1003.86
2018-01-25T07:02:21.522Z,1003.84
2018-01-25T07:03:02.843Z,1003.83
2018-01-25T07:03:44.430Z,1003.84
2018-01-25T07:04:24.653Z,1003.83
2018-01-25T07:05:05.995Z,1003.82
2018-01-25T07:05:46.928Z,1003.79
2018-01-25T07:06:30.588Z,1003.86
2018-01-25T07:07:13.277Z,1003.86
2018-01-25T07:07:54.523Z,1003.87
2018-01-25T07:08:37.619Z,1003.86
2018-01-25T07:09:19.612Z,1003.85
2018-01-25T07:10:01.775Z,1003.87
2018-01-25T07:10:42.716Z,1003.92
2018-01-25T07:11:23.022Z,1003.89
2018-01-25T07:12:05.614Z,1003.91
2018-01-25T07:12:44.885Z,1003.94
2018-01-25T07:13:29.204Z,1003.93
2018-01-25T07:14:09.653Z,1003.92
2018-01-25T07:14:50.254Z,1003.92
2018-01-25T07:15:31.228Z,1003.94
2018-01-25T07:16:13.007Z,1003.93
2018-01-25T07:16:54.989Z,1003.98
2018-01-25T07:17:36.223Z,1003.91
2018-01-25T07:18:17.743Z,1003.9
2018-01-25T07:18:59.765Z,1003.88
2018-01-25T07:19:40.701Z,1003.89
2018-01-25T07:20:22.166Z,1003.92
2018-01-25T07:21:03.046Z,1003.9
2018-01-25T07:21:45.599Z,1003.97
2018-01-25T07:22:26.103Z,1003.93
2018-01-25T07:23:06.689Z,1003.97
2018-01-25T07:23:48.065Z,1003.98
2018-01-25T07:24:30.078Z,1003.95
2018-01-25T07:25:10.375Z,1003.95
2018-01-25T07:25:51.027Z,1003.94
2018-01-25T07:26:31.852Z,1003.96
2018-01-25T07:27:14.600Z,1004.01
2018-01-25T07:39:52.414Z,1003.98
2018-01-25T07:44:26.985Z,1003.84
2018-01-25T07:49:47.438Z,1003.78
2018-01-25T07:50:40.046Z,1003.78
2018-01-25T07:51:34.131Z,1003.79
2018-01-25T07:52:29.307Z,1003.76
2018-01-25T07:53:24.181Z,1003.78
2018-01-25T07:54:17.707Z,1003.77
2018-01-25T07:55:11.406Z,1003.8
2018-01-25T07:56:07.808Z,1003.8
2018-01-25T07:57:05.412Z,1003.76
2018-01-25T07:57:57.508Z,1003.71
2018-01-25T07:58:51.251Z,1003.7
2018-01-25T07:59:43.566Z,1003.82
2018-01-25T08:00:36.357Z,1003.92
2018-01-25T08:01:29.032Z,1003.97
2018-01-25T08:02:23.573Z,1004.01
2018-01-25T08:03:20.853Z,1004.08
2018-01-25T08:04:21.098Z,1004.05
2018-01-25T08:05:14.728Z,1004.12
2018-01-25T08:06:09.960Z,1004.13
2018-01-25T08:07:11.071Z,1004.18
2018-01-25T08:08:19.041Z,1004.18
2018-01-25T08:09:14.586Z,1004.15
2018-01-25T08:14:40.059Z,1004.24
2018-01-25T08:15:34.700Z,1004.23
2018-01-25T08:16:27.825Z,1004.23
2018-01-25T08:17:28.841Z,1004.18
2018-01-25T08:18:29.087Z,1004.24
2018-01-25T08:39:14.052Z,1004.09
2018-01-25T08:40:07.484Z,1004.14
2018-01-25T08:41:00.746Z,1004.1
2018-01-25T08:41:54.531Z,1004.1
2018-01-25T08:42:48.752Z,1004.06
2018-01-25T09:10:47.977Z,1004.04
2018-01-25T09:11:42.618Z,1004.05
2018-01-25T09:12:42.476Z,1004.02
2018-01-25T09:16:30.803Z,1004.12
2018-01-25T09:18:24.193Z,1004.18
2018-01-25T09:19:05.952Z,1004.19
2018-01-25T09:19:46.489Z,1004.18
2018-01-25T09:20:27.510Z,1004.16
2018-01-25T09:21:08.989Z,1004.19
2018-01-25T09:35:13.680Z,1004.31
2018-01-25T09:35:55.450Z,1004.32
2018-01-25T09:36:36.180Z,1004.34
2018-01-25T09:49:26.647Z,1004.34
2018-01-25T09:52:06.076Z,1004.28
2018-01-25T09:53:06.908Z,1004.31
2018-01-25T09:54:02.578Z,1004.34
2018-01-25T09:54:54.859Z,1004.31
2018-01-25T09:55:48.532Z,1004.34
2018-01-25T09:56:40.508Z,1004.28
2018-01-25T09:57:23.069Z,1004.31
2018-01-25T09:58:03.468Z,1004.3
2018-01-25T09:58:43.909Z,1004.3
2018-01-25T09:59:24.237Z,1004.27
2018-01-25T10:00:04.652Z,1004.26
2018-01-25T10:00:45.105Z,1004.25
2018-01-25T10:01:25.961Z,1004.26
2018-01-25T10:02:06.473Z,1004.29
2018-01-25T10:02:47.643Z,1004.24
2018-01-25T10:03:27.630Z,1004.31
2018-01-25T10:04:08.463Z,1004.33
2018-01-25T10:04:48.893Z,1004.3
2018-01-25T10:42:43.372Z,1004.17
2018-01-25T10:43:37.202Z,1004.17
2018-01-25T10:44:29.003Z,1004.11
2018-01-25T10:45:19.840Z,1004.06
2018-01-25T10:46:01.610Z,1004.11
2018-01-25T10:46:41.210Z,1004.1
2018-01-25T10:47:21.604Z,1004.11
2018-01-25T10:48:02.098Z,1004.08
2018-01-25T10:48:42.488Z,1004.15
2018-01-25T10:49:22.906Z,1004.12
2018-01-25T10:50:03.211Z,1004.09
2018-01-25T10:50:43.694Z,1004.09
2018-01-25T10:51:24.086Z,1004.06
2018-01-25T10:52:04.485Z,1004.06
2018-01-25T10:52:45.570Z,1004.05
2018-01-25T10:53:25.434Z,1004.07
2018-01-25T10:54:05.862Z,1004.02
2018-01-25T10:54:46.265Z,1004.02
2018-01-25T10:55:26.728Z,1004.04
2018-01-25T10:56:07.312Z,1004.02
2018-01-25T10:56:48.564Z,1004.05
2018-01-25T10:57:29.088Z,1004.01
2018-01-25T10:58:09.039Z,1004.07
2018-01-25T10:58:49.782Z,1004
2018-01-25T10:59:30.781Z,1004.05
2018-01-25T11:00:10.944Z,1003.94
2018-01-25T11:00:51.673Z,1004.02
2018-01-25T11:01:32.625Z,1003.97
2018-01-25T11:02:13.481Z,1003.99
2018-01-25T11:02:54.666Z,1003.97
2018-01-25T11:03:35.442Z,1003.98
2018-01-25T11:04:15.632Z,1004
2018-01-25T11:04:57.898Z,1004
2018-01-25T11:05:38.331Z,1004
2018-01-25T11:06:18.987Z,1003.98
2018-01-25T11:07:00.575Z,1003.94
2018-01-25T11:07:41.130Z,1003.9
2018-01-25T11:08:21.155Z,1003.9
2018-01-25T11:09:02.597Z,1003.9
2018-01-25T11:09:43.374Z,1003.88
2018-01-25T11:10:24.638Z,1003.9
2018-01-25T11:11:04.962Z,1003.86
2018-01-25T11:11:45.360Z,1003.87
2018-01-25T11:12:26.128Z,1003.82
2018-01-25T11:13:06.546Z,1003.84
2018-01-25T11:13:46.974Z,1003.82
2018-01-25T11:14:27.459Z,1003.81
2018-01-25T11:15:08.303Z,1003.81
2018-01-25T11:16:04.631Z,1003.82
2018-01-25T11:16:45.397Z,1003.82
2018-01-25T11:17:40.703Z,1003.8
2018-01-25T11:20:28.218Z,1003.78
2018-01-25T11:21:17.220Z,1003.71
2018-01-25T11:22:06.022Z,1003.68
2018-01-25T11:22:54.382Z,1003.71
2018-01-25T11:23:44.118Z,1003.65
2018-01-25T11:24:32.346Z,1003.62
2018-01-25T11:25:23.150Z,1003.63
2018-01-25T11:26:10.540Z,1003.59
2018-01-25T11:26:59.714Z,1003.58
2018-01-25T11:27:48.673Z,1003.53
2018-01-25T11:28:38.624Z,1003.56
2018-01-25T11:29:27.896Z,1003.49
2018-01-25T11:31:51.230Z,1003.45
2018-01-25T11:32:35.690Z,1003.43
2018-01-25T11:37:04.066Z,1003.36
2018-01-25T11:37:53.378Z,1003.35
2018-01-25T11:38:43.239Z,1003.36
2018-01-25T11:39:32.611Z,1003.33
2018-01-25T11:40:21.235Z,1003.33
2018-01-25T11:42:50.437Z,1003.33
2018-01-25T11:46:59.552Z,1003.35
2018-01-25T11:47:48.956Z,1003.36
2018-01-25T11:48:37.636Z,1003.36
2018-01-25T11:49:28.574Z,1003.3
2018-01-25T11:50:17.984Z,1003.35
2018-01-25T11:51:05.967Z,1003.37
2018-01-25T11:53:14.546Z,1003.38
2018-01-25T11:54:08.285Z,1003.42
2018-01-25T11:55:00.964Z,1003.37
2018-01-25T11:55:55.190Z,1003.41
2018-01-25T11:56:49.252Z,1003.38
2018-01-25T11:57:43.741Z,1003.39
2018-01-25T11:58:37.482Z,1003.39
2018-01-25T11:59:32.770Z,1003.37
2018-01-25T12:02:24.940Z,1003.39
2018-01-25T12:03:17.263Z,1003.41
2018-01-25T12:04:06.433Z,1003.38
2018-01-25T12:04:55.212Z,1003.34
2018-01-25T12:05:44.140Z,1003.31
2018-01-25T12:14:23.125Z,1003.25
2018-01-25T12:15:19.421Z,1003.23
2018-01-25T12:16:15.784Z,1003.26
2018-01-25T12:17:10.324Z,1003.24
2018-01-25T12:18:06.325Z,1003.21
2018-01-25T12:19:02.753Z,1003.22
2018-01-25T12:19:55.931Z,1003.22
2018-01-25T12:20:51.337Z,1003.19
2018-01-25T12:21:45.111Z,1003.21
2018-01-25T12:22:37.564Z,1003.22
2018-01-25T12:23:30.352Z,1003.26
2018-01-25T12:24:23.196Z,1003.24
2018-01-25T12:25:15.912Z,1003.26
2018-01-25T12:26:10.629Z,1003.24
2018-01-25T12:30:08.018Z,1003.21
2018-01-25T12:31:07.961Z,1003.21
2018-01-25T12:32:01.716Z,1003.24
2018-01-25T12:32:57.280Z,1003.19
2018-01-25T12:33:50.959Z,1003.2
2018-01-25T12:34:49.370Z,1003.2
2018-01-25T12:35:43.876Z,1003.19
2018-01-25T12:36:37.563Z,1003.18
2018-01-25T12:37:33.274Z,1003.11
2018-01-25T12:38:32.189Z,1003.14
2018-01-25T12:39:26.290Z,1003.08
2018-01-25T12:40:21.532Z,1003.04
2018-01-25T12:41:22.659Z,1003.07
2018-01-25T12:42:27.370Z,1003.04
2018-01-25T12:43:21.653Z,1002.98
2018-01-25T12:44:15.738Z,1002.97
2018-01-25T12:45:12.267Z,1002.93
2018-01-25T12:46:11.097Z,1002.89
2018-01-25T12:47:04.461Z,1002.86
2018-01-25T12:51:35.196Z,1002.76
2018-01-25T12:52:29.520Z,1002.76
2018-01-25T12:53:26.931Z,1002.73
2018-01-25T12:54:20.216Z,1002.74
2018-01-25T12:55:15.676Z,1002.72
2018-01-25T12:57:46.471Z,1002.67
2018-01-25T12:58:42.210Z,1002.6
2018-01-25T12:59:40.935Z,1002.64
2018-01-25T13:00:37.083Z,1002.63
2018-01-25T13:01:30.576Z,1002.6
2018-01-25T13:02:24.497Z,1002.63
2018-01-25T13:03:19.409Z,1002.57
2018-01-25T13:04:15.175Z,1002.53
2018-01-25T13:05:13.011Z,1002.58
2018-01-25T13:06:06.536Z,1002.55
2018-01-25T13:07:02.026Z,1002.55
2018-01-25T13:08:04.341Z,1002.49
2018-01-25T13:13:47.041Z,1002.52
2018-01-25T13:14:42.918Z,1002.48
2018-01-25T13:15:42.386Z,1002.48
2018-01-25T14:01:04.989Z,1002.31
2018-01-25T14:01:53.367Z,1002.27
2018-01-25T14:02:45.502Z,1002.29
2018-01-25T14:03:34.439Z,1002.28
2018-01-25T14:04:23.148Z,1002.25
2018-01-25T14:28:51.804Z,1002.29
2018-01-25T14:29:42.843Z,1002.54
2018-01-25T14:30:31.390Z,1002.52
2018-01-25T14:31:23.048Z,1002.51
2018-01-25T14:32:14.469Z,1002.52
2018-01-25T14:33:06.548Z,1002.51
2018-01-25T14:33:58.261Z,1002.47
2018-01-25T14:34:46.829Z,1002.48
2018-01-25T14:35:37.670Z,1002.45
2018-01-25T14:36:27.697Z,1002.43
2018-01-25T14:37:19.102Z,1002.35
2018-01-25T14:48:24.505Z,1002.44
2018-01-25T14:49:13.630Z,1002.43
2018-01-25T14:50:06.004Z,1002.44
2018-01-25T14:50:55.341Z,1002.42
2018-01-25T14:51:44.875Z,1002.45
2018-01-25T14:52:33.883Z,1002.48
2018-01-25T16:43:29.338Z,1002.38
2018-01-25T16:47:37.891Z,1002.46
2018-01-25T16:48:21.471Z,1002.49
2018-01-25T16:49:03.146Z,1002.45
2018-01-25T16:49:43.849Z,1002.49
2018-01-25T16:50:24.272Z,1002.49
2018-01-25T16:51:04.767Z,1002.51
2018-01-25T16:51:45.270Z,1002.51
2018-01-25T16:52:25.954Z,1002.5
2018-01-25T16:53:07.503Z,1002.56
2018-01-25T16:53:48.116Z,1002.51
2018-01-25T16:54:29.119Z,1002.51
2018-01-25T16:55:10.441Z,1002.49
2018-01-25T16:55:51.092Z,1002.53
2018-01-25T16:56:31.847Z,1002.51
2018-01-25T16:57:12.495Z,1002.52
2018-01-25T16:57:52.920Z,1002.54
2018-01-25T16:58:33.396Z,1002.55
2018-01-25T16:59:13.774Z,1002.57
2018-01-25T16:59:54.189Z,1002.65
2018-01-25T17:00:34.640Z,1002.65
2018-01-25T17:01:15.039Z,1002.67
2018-01-25T17:01:55.838Z,1002.66
2018-01-25T17:02:37.511Z,1002.7
2018-01-25T17:03:17.357Z,1002.65
2018-01-25T17:03:58.896Z,1002.65
2018-01-25T17:04:39.982Z,1002.63
2018-01-25T17:05:20.026Z,1002.64
2018-01-25T17:06:02.438Z,1002.65
2018-01-25T17:06:43.715Z,1002.64
2018-01-25T17:07:24.151Z,1002.65
2018-01-25T17:08:05.359Z,1002.65
2018-01-25T17:08:46.369Z,1002.68
2018-01-25T17:09:26.603Z,1002.71
2018-01-25T17:10:07.730Z,1002.67
2018-01-25T17:10:49.109Z,1002.72
2018-01-25T17:11:29.983Z,1002.72
2018-01-25T17:12:11.526Z,1002.74
2018-01-25T17:12:51.674Z,1002.72
2018-01-25T17:13:32.885Z,1002.77
2018-01-25T17:14:13.473Z,1002.77
2018-01-25T17:14:53.374Z,1002.8
2018-01-25T17:15:33.933Z,1002.78
2018-01-25T17:16:15.423Z,1002.83
2018-01-25T17:16:55.484Z,1002.81
2018-01-25T17:17:36.973Z,1002.83
2018-01-25T17:18:17.126Z,1002.86
2018-01-25T17:18:57.692Z,1002.85
2018-01-25T17:19:38.155Z,1002.91
2018-01-25T17:20:18.621Z,1002.88
2018-01-25T17:20:59.337Z,1002.88
2018-01-25T17:21:40.266Z,1002.93
2018-01-25T17:22:21.466Z,1002.97
2018-01-25T17:23:02.396Z,1002.96
2018-01-25T17:23:42.586Z,1002.96
2018-01-25T17:24:23.233Z,1003
2018-01-25T17:25:03.830Z,1002.95
2018-01-25T17:25:44.326Z,1003
2018-01-25T17:26:24.744Z,1003.03
2018-01-25T17:27:05.849Z,1003.03
2018-01-25T17:27:45.663Z,1003
2018-01-25T17:28:26.127Z,1003
2018-01-25T17:29:06.463Z,1003
2018-01-25T17:29:47.015Z,1002.98
2018-01-25T17:30:27.725Z,1002.96
2018-01-25T17:31:08.446Z,1002.98
2018-01-25T17:31:48.921Z,1002.96
2018-01-25T17:32:29.310Z,1002.96
2018-01-25T17:33:09.796Z,1002.99
2018-01-25T17:33:50.136Z,1002.96
2018-01-25T17:35:50.632Z,1003.05
2018-01-25T17:36:32.413Z,1003.09
2018-01-25T17:37:14.362Z,1003.09
2018-01-25T17:37:54.949Z,1003.14
2018-01-25T17:38:35.528Z,1003.14
2018-01-25T17:39:16.423Z,1003.13
2018-01-25T17:41:14.323Z,1003.18
2018-01-25T17:41:54.684Z,1003.16
2018-01-25T17:42:35.142Z,1003.19
2018-01-25T17:43:15.610Z,1003.16
2018-01-25T17:43:56.027Z,1003.17
2018-01-25T17:44:36.529Z,1003.16
2018-01-25T17:45:17.092Z,1003.16
2018-01-25T17:45:57.808Z,1003.18
2018-01-25T17:48:05.500Z,1003.16
2018-01-25T17:49:12.994Z,1003.12
2018-01-25T17:50:09.164Z,1003.12
2018-01-25T17:52:41.234Z,1003.1
2018-01-25T17:53:21.664Z,1003.11
2018-01-25T17:54:02.051Z,1003.08
2018-01-25T17:54:42.470Z,1003.11
2018-01-25T17:55:22.919Z,1003.09
2018-01-25T17:56:03.372Z,1003.08
2018-01-25T17:56:43.742Z,1003.05
2018-01-25T17:57:24.103Z,1003.09
2018-01-25T17:58:04.514Z,1003.09
2018-01-25T17:58:44.910Z,1003.08
2018-01-25T17:59:25.339Z,1003.13
2018-01-25T18:00:05.731Z,1003.1
2018-01-25T18:00:46.213Z,1003.1
2018-01-25T18:01:26.541Z,1003.17
2018-01-25T18:02:06.902Z,1003.16
2018-01-25T18:02:47.291Z,1003.14
2018-01-25T18:03:27.705Z,1003.16
2018-01-25T18:04:08.459Z,1003.16
2018-01-25T18:04:48.909Z,1003.15
2018-01-25T18:05:29.245Z,1003.15
2018-01-25T18:06:09.805Z,1003.14
2018-01-25T18:06:50.115Z,1003.16
2018-01-25T18:07:30.525Z,1003.19
2018-01-25T18:08:10.905Z,1003.14
2018-01-25T18:08:51.266Z,1003.18
2018-01-25T18:09:31.740Z,1003.22
2018-01-25T18:10:12.065Z,1003.17
2018-01-25T18:10:52.434Z,1003.15
2018-01-25T18:11:32.826Z,1003.17
2018-01-25T18:12:13.255Z,1003.21
2018-01-25T18:12:53.672Z,1003.19
2018-01-25T18:13:34.094Z,1003.19
2018-01-25T18:14:14.450Z,1003.13
2018-01-25T18:14:54.902Z,1003.18
2018-01-25T18:15:35.235Z,1003.19
2018-01-25T18:16:15.649Z,1003.2
2018-01-25T18:16:56.042Z,1003.18
2018-01-25T18:17:36.416Z,1003.21
2018-01-25T18:18:16.787Z,1003.18
2018-01-25T18:18:57.226Z,1003.2
2018-01-25T18:19:37.565Z,1003.22
2018-01-25T18:20:17.946Z,1003.18
2018-01-25T18:20:58.342Z,1003.18
2018-01-25T18:21:38.716Z,1003.21
2018-01-25T18:22:19.190Z,1003.21
2018-01-25T18:22:59.546Z,1003.21
2018-01-25T18:23:39.932Z,1003.22
2018-01-25T18:24:20.364Z,1003.2
2018-01-25T18:25:00.734Z,1003.21
2018-01-25T18:25:41.158Z,1003.22
2018-01-25T18:26:21.610Z,1003.21
2018-01-25T18:27:01.982Z,1003.21
2018-01-25T18:27:42.379Z,1003.18
2018-01-25T18:28:22.742Z,1003.22
2018-01-25T18:29:03.154Z,1003.22
2018-01-25T18:29:43.500Z,1003.24
2018-01-25T18:30:23.933Z,1003.25
2018-01-25T18:31:04.304Z,1003.22
2018-01-25T18:31:44.700Z,1003.28
2018-01-25T18:32:25.051Z,1003.29
2018-01-25T18:33:05.517Z,1003.29
2018-01-25T18:33:45.847Z,1003.29
2018-01-25T18:34:26.256Z,1003.33
2018-01-25T18:35:06.695Z,1003.32
2018-01-25T18:35:47.141Z,1003.33
2018-01-25T18:36:27.506Z,1003.32
2018-01-25T18:37:07.906Z,1003.32
2018-01-25T18:37:48.332Z,1003.31
2018-01-25T18:38:28.696Z,1003.33
2018-01-25T18:39:09.139Z,1003.32
2018-01-25T18:41:06.655Z,1003.32
2018-01-25T18:41:47.034Z,1003.33
2018-01-25T18:43:59.648Z,1003.31